Terminal Aerodrome Forecast
Issued by NWS

Home | Current Version | Previous Version | Text Only | Print | Product List | Glossary On
Versions: 1 2 3 4 5 6 7 8 9 10 11 12
720
FTUS46 KMTR 121720
TAFMRY
TAF
KMRY 121720Z 1218/1318 VRB04KT P6SM FEW200
     FM122000 34004KT P6SM FEW200
     FM130200 11004KT P6SM SKC=

USA.gov is the U.S. government's official web portal to all federal, state and local government web resources and services.